KLVM/LVM METAR and TAF weather

Enter ICAO airport designator
Station Type Date Time Source
KLVM METAR 2022/11/30 09:53 UTC NOAA

KLVM 300953Z AUTO 00000KT 10SM CLR M18/M21 A2993 RMK AO2 SLP222 T11781211


Station Type Date Time Source
KLVM Decoded METAR 2022/11/30 09:53 UTC NOAA

LIVINGSTON MISSION FIELD, MT, United States (KLVM) 45-42N 110-26W 1418M
Nov 30, 2022 - 04:53 AM EST / 2022.11.30 0953 UTC
Wind: Calm:0
Visibility: 10 mile(s):0
Sky conditions: clear
Temperature: -0.0 F (-17.8 C)
Dew Point: -6.0 F (-21.1 C)
Relative Humidity: 75%
Pressure (altimeter): 29.93 in. Hg (1013 hPa)
ob: KLVM 300953Z AUTO 00000KT 10SM CLR M18/M21 A2993 RMK AO2 SLP222 T11781211
cycle: 10

Station Type Date Time Source
KLVM TAF 2022/11/30 06:42 UTC NOAA

TAF KLVM 300541Z 3006/0106 31010KT P6SM SCT110 SCT200
FM301500 21017G24KT P6SM SCT070 BKN200
FM302100 20024G35KT P6SM BKN070
FM010300 21032G44KT P6SM BKN060

Example: see airport list